sensor_id;sensor_type;location;lat;lon;timestamp;temperature;humidity
19232;DHT22;9750;48.730;10.294;2024-02-14T00:01:49;4.70;99.90
19232;DHT22;9750;48.730;10.294;2024-02-14T00:04:16;4.70;99.90
19232;DHT22;9750;48.730;10.294;2024-02-14T00:06:44;4.70;99.90
19232;DHT22;9750;48.730;10.294;2024-02-14T00:09:13;4.60;99.90
19232;DHT22;9750;48.730;10.294;2024-02-14T00:11:40;4.70;99.90
19232;DHT22;9750;48.730;10.294;2024-02-14T00:14:08;4.60;99.90
19232;DHT22;9750;48.730;10.294;2024-02-14T00:16:35;4.60;99.90
19232;DHT22;9750;48.730;10.294;2024-02-14T00:19:04;4.60;99.90
19232;DHT22;9750;48.730;10.294;2024-02-14T00:21:32;4.60;99.90
19232;DHT22;9750;48.730;10.294;2024-02-14T00:24:00;4.60;99.90
19232;DHT22;9750;48.730;10.294;2024-02-14T00:26:29;4.50;99.90
19232;DHT22;9750;48.730;10.294;2024-02-14T00:28:56;4.50;99.90
19232;DHT22;9750;48.730;10.294;2024-02-14T00:31:23;4.50;99.90
19232;DHT22;9750;48.730;10.294;2024-02-14T00:33:51;4.50;99.90
19232;DHT22;9750;48.730;10.294;2024-02-14T00:36:18;4.50;99.90
19232;DHT22;9750;48.730;10.294;2024-02-14T00:38:45;4.50;99.90
19232;DHT22;9750;48.730;10.294;2024-02-14T00:41:12;4.50;99.90
19232;DHT22;9750;48.730;10.294;2024-02-14T00:43:41;4.50;99.90
19232;DHT22;9750;48.730;10.294;2024-02-14T00:46:08;4.50;99.90
19232;DHT22;9750;48.730;10.294;2024-02-14T00:48:36;4.50;99.90
19232;DHT22;9750;48.730;10.294;2024-02-14T00:51:03;4.50;99.90
19232;DHT22;9750;48.730;10.294;2024-02-14T00:53:31;4.50;99.90
19232;DHT22;9750;48.730;10.294;2024-02-14T00:55:59;4.50;99.90
19232;DHT22;9750;48.730;10.294;2024-02-14T00:58:26;4.40;99.90
19232;DHT22;9750;48.730;10.294;2024-02-14T01:00:55;4.40;99.90
19232;DHT22;9750;48.730;10.294;2024-02-14T01:03:22;4.40;99.90
19232;DHT22;9750;48.730;10.294;2024-02-14T01:09:11;4.40;99.90
19232;DHT22;9750;48.730;10.294;2024-02-14T01:11:39;4.40;99.90
19232;DHT22;9750;48.730;10.294;2024-02-14T01:14:06;4.30;99.90
19232;DHT22;9750;48.730;10.294;2024-02-14T01:16:42;4.30;99.90
19232;DHT22;9750;48.730;10.294;2024-02-14T01:19:10;4.30;99.90
19232;DHT22;9750;48.730;10.294;2024-02-14T01:21:37;4.30;99.90
19232;DHT22;9750;48.730;10.294;2024-02-14T01:24:05;4.30;99.90
19232;DHT22;9750;48.730;10.294;2024-02-14T01:26:34;4.40;99.90
19232;DHT22;9750;48.730;10.294;2024-02-14T01:29:01;4.40;99.90
19232;DHT22;9750;48.730;10.294;2024-02-14T01:31:29;4.40;99.90
19232;DHT22;9750;48.730;10.294;2024-02-14T01:33:58;4.30;99.90
19232;DHT22;9750;48.730;10.294;2024-02-14T01:36:27;4.30;99.90
19232;DHT22;9750;48.730;10.294;2024-02-14T01:38:55;4.30;99.90
19232;DHT22;9750;48.730;10.294;2024-02-14T01:41:22;4.30;99.90
19232;DHT22;9750;48.730;10.294;2024-02-14T01:43:50;4.30;99.90
19232;DHT22;9750;48.730;10.294;2024-02-14T01:49:37;4.30;99.90
19232;DHT22;9750;48.730;10.294;2024-02-14T01:52:05;4.30;99.90
19232;DHT22;9750;48.730;10.294;2024-02-14T01:54:33;4.40;99.90
19232;DHT22;9750;48.730;10.294;2024-02-14T01:57:02;4.40;99.90
19232;DHT22;9750;48.730;10.294;2024-02-14T01:59:29;4.40;99.90
19232;DHT22;9750;48.730;10.294;2024-02-14T02:01:57;4.40;99.90
19232;DHT22;9750;48.730;10.294;2024-02-14T02:04:24;4.40;99.90
19232;DHT22;9750;48.730;10.294;2024-02-14T02:06:54;4.40;99.90
19232;DHT22;9750;48.730;10.294;2024-02-14T02:09:22;4.40;99.90
19232;DHT22;9750;48.730;10.294;2024-02-14T02:11:50;4.50;99.90
19232;DHT22;9750;48.730;10.294;2024-02-14T02:14:19;4.50;99.90
19232;DHT22;9750;48.730;10.294;2024-02-14T02:16:47;4.50;99.90
19232;DHT22;9750;48.730;10.294;2024-02-14T02:19:14;4.50;99.90
19232;DHT22;9750;48.730;10.294;2024-02-14T02:21:42;4.50;99.90
19232;DHT22;9750;48.730;10.294;2024-02-14T02:24:11;4.50;99.90
19232;DHT22;9750;48.730;10.294;2024-02-14T02:26:38;4.50;99.90
19232;DHT22;9750;48.730;10.294;2024-02-14T02:29:06;4.60;99.90
19232;DHT22;9750;48.730;10.294;2024-02-14T02:31:33;4.60;99.90
19232;DHT22;9750;48.730;10.294;2024-02-14T02:34:00;4.60;99.90
19232;DHT22;9750;48.730;10.294;2024-02-14T02:36:28;4.70;99.90
19232;DHT22;9750;48.730;10.294;2024-02-14T02:38:56;4.70;99.90
19232;DHT22;9750;48.730;10.294;2024-02-14T02:41:25;4.70;99.90
19232;DHT22;9750;48.730;10.294;2024-02-14T02:43:52;4.70;99.90
19232;DHT22;9750;48.730;10.294;2024-02-14T02:46:20;4.80;99.90
19232;DHT22;9750;48.730;10.294;2024-02-14T02:48:48;4.80;99.90
19232;DHT22;9750;48.730;10.294;2024-02-14T02:51:16;4.80;99.90
19232;DHT22;9750;48.730;10.294;2024-02-14T02:53:44;4.90;99.90
19232;DHT22;9750;48.730;10.294;2024-02-14T02:56:11;4.90;99.90
19232;DHT22;9750;48.730;10.294;2024-02-14T02:58:42;4.90;99.90
19232;DHT22;9750;48.730;10.294;2024-02-14T03:01:10;5.00;99.90
19232;DHT22;9750;48.730;10.294;2024-02-14T03:03:38;5.00;99.90
19232;DHT22;9750;48.730;10.294;2024-02-14T03:06:07;5.00;99.90
19232;DHT22;9750;48.730;10.294;2024-02-14T03:08:34;5.10;99.90
19232;DHT22;9750;48.730;10.294;2024-02-14T03:11:04;5.10;99.90
19232;DHT22;9750;48.730;10.294;2024-02-14T03:13:32;5.10;99.90
19232;DHT22;9750;48.730;10.294;2024-02-14T03:16:03;5.10;99.90
19232;DHT22;9750;48.730;10.294;2024-02-14T03:18:31;5.20;99.90
19232;DHT22;9750;48.730;10.294;2024-02-14T03:20:59;5.20;99.90
19232;DHT22;9750;48.730;10.294;2024-02-14T03:23:26;5.20;99.90
19232;DHT22;9750;48.730;10.294;2024-02-14T03:25:53;5.30;99.90
19232;DHT22;9750;48.730;10.294;2024-02-14T03:28:20;5.30;99.90
19232;DHT22;9750;48.730;10.294;2024-02-14T03:30:48;5.30;99.90
19232;DHT22;9750;48.730;10.294;2024-02-14T03:33:17;5.30;99.90
19232;DHT22;9750;48.730;10.294;2024-02-14T03:35:44;5.40;99.90
19232;DHT22;9750;48.730;10.294;2024-02-14T03:38:12;5.40;99.90
19232;DHT22;9750;48.730;10.294;2024-02-14T03:40:40;5.40;99.90
19232;DHT22;9750;48.730;10.294;2024-02-14T03:43:07;5.40;99.90
19232;DHT22;9750;48.730;10.294;2024-02-14T03:45:37;5.50;99.90
19232;DHT22;9750;48.730;10.294;2024-02-14T03:48:05;5.50;99.90
19232;DHT22;9750;48.730;10.294;2024-02-14T03:50:34;5.50;99.90
19232;DHT22;9750;48.730;10.294;2024-02-14T03:53:01;5.50;99.90
19232;DHT22;9750;48.730;10.294;2024-02-14T03:55:29;5.50;99.90
19232;DHT22;9750;48.730;10.294;2024-02-14T03:57:57;5.50;99.90
19232;DHT22;9750;48.730;10.294;2024-02-14T04:00:24;5.50;99.90
19232;DHT22;9750;48.730;10.294;2024-02-14T04:02:51;5.50;99.90
19232;DHT22;9750;48.730;10.294;2024-02-14T04:05:19;5.50;99.90
19232;DHT22;9750;48.730;10.294;2024-02-14T04:07:48;5.60;99.90
19232;DHT22;9750;48.730;10.294;2024-02-14T04:10:18;5.60;99.90
19232;DHT22;9750;48.730;10.294;2024-02-14T04:12:45;5.60;99.90
19232;DHT22;9750;48.730;10.294;2024-02-14T04:15:12;5.60;99.90
19232;DHT22;9750;48.730;10.294;2024-02-14T04:17:40;5.60;99.90
19232;DHT22;9750;48.730;10.294;2024-02-14T04:20:08;5.60;99.90
19232;DHT22;9750;48.730;10.294;2024-02-14T04:22:35;5.60;99.90
19232;DHT22;9750;48.730;10.294;2024-02-14T04:25:07;5.60;99.90
19232;DHT22;9750;48.730;10.294;2024-02-14T04:27:34;5.70;99.90
19232;DHT22;9750;48.730;10.294;2024-02-14T04:30:01;5.70;99.90
19232;DHT22;9750;48.730;10.294;2024-02-14T04:32:29;5.70;99.90
19232;DHT22;9750;48.730;10.294;2024-02-14T04:34:56;5.70;99.90
19232;DHT22;9750;48.730;10.294;2024-02-14T04:37:24;5.70;99.90
19232;DHT22;9750;48.730;10.294;2024-02-14T04:39:51;5.70;99.90
19232;DHT22;9750;48.730;10.294;2024-02-14T04:42:20;5.70;99.90
19232;DHT22;9750;48.730;10.294;2024-02-14T04:44:47;5.70;99.90
19232;DHT22;9750;48.730;10.294;2024-02-14T04:47:14;5.70;99.90
19232;DHT22;9750;48.730;10.294;2024-02-14T04:49:42;5.60;99.90
19232;DHT22;9750;48.730;10.294;2024-02-14T04:52:09;5.60;99.90
19232;DHT22;9750;48.730;10.294;2024-02-14T04:54:36;5.60;99.90
19232;DHT22;9750;48.730;10.294;2024-02-14T04:57:04;5.60;99.90
19232;DHT22;9750;48.730;10.294;2024-02-14T04:59:32;5.50;99.90
19232;DHT22;9750;48.730;10.294;2024-02-14T05:02:00;5.50;99.90
19232;DHT22;9750;48.730;10.294;2024-02-14T05:04:27;5.50;99.90
19232;DHT22;9750;48.730;10.294;2024-02-14T05:06:55;5.50;99.90
19232;DHT22;9750;48.730;10.294;2024-02-14T05:09:23;5.50;99.90
19232;DHT22;9750;48.730;10.294;2024-02-14T05:11:50;5.60;99.90
19232;DHT22;9750;48.730;10.294;2024-02-14T05:14:17;5.60;99.90
19232;DHT22;9750;48.730;10.294;2024-02-14T05:16:46;5.60;99.90
19232;DHT22;9750;48.730;10.294;2024-02-14T05:19:13;5.60;99.90
19232;DHT22;9750;48.730;10.294;2024-02-14T05:21:40;5.60;99.90
19232;DHT22;9750;48.730;10.294;2024-02-14T05:24:08;5.60;99.90
19232;DHT22;9750;48.730;10.294;2024-02-14T05:26:35;5.60;99.90
19232;DHT22;9750;48.730;10.294;2024-02-14T05:29:03;5.60;99.90
19232;DHT22;9750;48.730;10.294;2024-02-14T05:31:43;5.60;99.90
19232;DHT22;9750;48.730;10.294;2024-02-14T05:34:12;5.60;99.90
19232;DHT22;9750;48.730;10.294;2024-02-14T05:36:39;5.60;99.90
19232;DHT22;9750;48.730;10.294;2024-02-14T05:39:08;5.60;99.90
19232;DHT22;9750;48.730;10.294;2024-02-14T05:41:35;5.60;99.90
19232;DHT22;9750;48.730;10.294;2024-02-14T05:44:03;5.60;99.90
19232;DHT22;9750;48.730;10.294;2024-02-14T05:46:30;5.50;99.90
19232;DHT22;9750;48.730;10.294;2024-02-14T05:48:57;5.60;99.90
19232;DHT22;9750;48.730;10.294;2024-02-14T05:51:26;5.50;99.90
19232;DHT22;9750;48.730;10.294;2024-02-14T05:53:53;5.50;99.90
19232;DHT22;9750;48.730;10.294;2024-02-14T05:56:21;5.50;99.90
19232;DHT22;9750;48.730;10.294;2024-02-14T05:58:48;5.50;99.90
19232;DHT22;9750;48.730;10.294;2024-02-14T06:01:16;5.50;99.90
19232;DHT22;9750;48.730;10.294;2024-02-14T06:03:44;5.50;99.90
19232;DHT22;9750;48.730;10.294;2024-02-14T06:06:11;5.60;99.90
19232;DHT22;9750;48.730;10.294;2024-02-14T06:08:40;5.60;99.90
19232;DHT22;9750;48.730;10.294;2024-02-14T06:11:07;5.50;99.90
19232;DHT22;9750;48.730;10.294;2024-02-14T06:13:34;5.50;99.90
19232;DHT22;9750;48.730;10.294;2024-02-14T06:16:02;5.60;99.90
19232;DHT22;9750;48.730;10.294;2024-02-14T06:18:29;5.60;99.90
19232;DHT22;9750;48.730;10.294;2024-02-14T06:20:57;5.60;99.90
19232;DHT22;9750;48.730;10.294;2024-02-14T06:23:24;5.60;99.90
19232;DHT22;9750;48.730;10.294;2024-02-14T06:25:53;5.60;99.90
19232;DHT22;9750;48.730;10.294;2024-02-14T06:28:20;5.60;99.90
19232;DHT22;9750;48.730;10.294;2024-02-14T06:30:47;5.70;99.90
19232;DHT22;9750;48.730;10.294;2024-02-14T06:33:15;5.70;99.90
19232;DHT22;9750;48.730;10.294;2024-02-14T06:35:42;5.70;99.90
19232;DHT22;9750;48.730;10.294;2024-02-14T06:38:09;5.70;99.90
19232;DHT22;9750;48.730;10.294;2024-02-14T06:40:37;5.70;99.90
19232;DHT22;9750;48.730;10.294;2024-02-14T06:43:05;5.70;99.90
19232;DHT22;9750;48.730;10.294;2024-02-14T06:45:33;5.80;99.90
19232;DHT22;9750;48.730;10.294;2024-02-14T06:48:00;5.80;99.90
19232;DHT22;9750;48.730;10.294;2024-02-14T06:50:27;5.80;99.90
19232;DHT22;9750;48.730;10.294;2024-02-14T06:52:55;5.90;99.90
19232;DHT22;9750;48.730;10.294;2024-02-14T06:55:25;5.90;99.90
19232;DHT22;9750;48.730;10.294;2024-02-14T06:57:52;5.90;99.90
19232;DHT22;9750;48.730;10.294;2024-02-14T07:00:21;5.90;99.90
19232;DHT22;9750;48.730;10.294;2024-02-14T07:02:49;5.90;99.90
19232;DHT22;9750;48.730;10.294;2024-02-14T07:08:40;5.90;99.90
19232;DHT22;9750;48.730;10.294;2024-02-14T07:11:07;5.90;99.90
19232;DHT22;9750;48.730;10.294;2024-02-14T07:13:35;5.90;99.90
19232;DHT22;9750;48.730;10.294;2024-02-14T07:16:04;5.90;99.90
19232;DHT22;9750;48.730;10.294;2024-02-14T07:18:31;5.90;99.90
19232;DHT22;9750;48.730;10.294;2024-02-14T07:20:59;6.00;99.90
19232;DHT22;9750;48.730;10.294;2024-02-14T07:23:27;5.90;99.90
19232;DHT22;9750;48.730;10.294;2024-02-14T07:25:54;5.90;99.90
19232;DHT22;9750;48.730;10.294;2024-02-14T07:28:22;5.90;99.90
19232;DHT22;9750;48.730;10.294;2024-02-14T07:30:49;5.90;99.90
19232;DHT22;9750;48.730;10.294;2024-02-14T07:33:18;6.00;99.90
19232;DHT22;9750;48.730;10.294;2024-02-14T07:35:45;6.00;99.90
19232;DHT22;9750;48.730;10.294;2024-02-14T07:38:13;6.00;99.90
19232;DHT22;9750;48.730;10.294;2024-02-14T07:40:40;6.10;99.90
19232;DHT22;9750;48.730;10.294;2024-02-14T07:43:07;6.10;99.90
19232;DHT22;9750;48.730;10.294;2024-02-14T07:45:34;6.20;99.90
19232;DHT22;9750;48.730;10.294;2024-02-14T07:48:02;6.30;99.90
19232;DHT22;9750;48.730;10.294;2024-02-14T07:50:31;6.30;99.90
19232;DHT22;9750;48.730;10.294;2024-02-14T07:52:59;6.30;99.90
19232;DHT22;9750;48.730;10.294;2024-02-14T07:55:26;6.40;99.90
19232;DHT22;9750;48.730;10.294;2024-02-14T07:57:53;6.40;99.90
19232;DHT22;9750;48.730;10.294;2024-02-14T08:00:21;6.40;99.90
19232;DHT22;9750;48.730;10.294;2024-02-14T08:02:49;6.40;99.90
19232;DHT22;9750;48.730;10.294;2024-02-14T08:05:16;6.50;99.90
19232;DHT22;9750;48.730;10.294;2024-02-14T08:07:46;6.50;99.90
19232;DHT22;9750;48.730;10.294;2024-02-14T08:10:13;6.50;99.90
19232;DHT22;9750;48.730;10.294;2024-02-14T08:12:40;6.50;99.90
19232;DHT22;9750;48.730;10.294;2024-02-14T08:15:09;6.50;99.90
19232;DHT22;9750;48.730;10.294;2024-02-14T08:17:36;6.50;99.90
19232;DHT22;9750;48.730;10.294;2024-02-14T08:20:04;6.50;99.90
19232;DHT22;9750;48.730;10.294;2024-02-14T08:22:31;6.50;99.90
19232;DHT22;9750;48.730;10.294;2024-02-14T08:25:00;6.60;99.90
19232;DHT22;9750;48.730;10.294;2024-02-14T08:27:27;6.60;99.90
19232;DHT22;9750;48.730;10.294;2024-02-14T08:29:57;6.60;99.90
19232;DHT22;9750;48.730;10.294;2024-02-14T08:32:24;6.70;99.90
19232;DHT22;9750;48.730;10.294;2024-02-14T08:34:51;6.70;99.90
19232;DHT22;9750;48.730;10.294;2024-02-14T08:37:19;6.80;99.90
19232;DHT22;9750;48.730;10.294;2024-02-14T08:39:46;6.80;99.90
19232;DHT22;9750;48.730;10.294;2024-02-14T08:42:15;6.80;99.90
19232;DHT22;9750;48.730;10.294;2024-02-14T08:44:42;6.90;99.90
19232;DHT22;9750;48.730;10.294;2024-02-14T08:47:10;6.90;99.90
19232;DHT22;9750;48.730;10.294;2024-02-14T08:49:40;6.90;99.90
19232;DHT22;9750;48.730;10.294;2024-02-14T08:52:08;7.00;99.90
19232;DHT22;9750;48.730;10.294;2024-02-14T08:54:36;7.00;99.90
19232;DHT22;9750;48.730;10.294;2024-02-14T08:57:04;7.10;99.90
19232;DHT22;9750;48.730;10.294;2024-02-14T08:59:32;7.10;99.90
19232;DHT22;9750;48.730;10.294;2024-02-14T09:02:00;7.20;99.90
19232;DHT22;9750;48.730;10.294;2024-02-14T09:04:27;7.20;99.90
19232;DHT22;9750;48.730;10.294;2024-02-14T09:06:54;7.30;99.90
19232;DHT22;9750;48.730;10.294;2024-02-14T09:09:22;7.50;99.90
19232;DHT22;9750;48.730;10.294;2024-02-14T09:11:49;7.60;99.90
19232;DHT22;9750;48.730;10.294;2024-02-14T09:14:16;7.70;99.90
19232;DHT22;9750;48.730;10.294;2024-02-14T09:16:45;7.80;99.90
19232;DHT22;9750;48.730;10.294;2024-02-14T09:19:13;7.90;99.90
19232;DHT22;9750;48.730;10.294;2024-02-14T09:21:40;7.90;99.90
19232;DHT22;9750;48.730;10.294;2024-02-14T09:24:07;8.00;99.90
19232;DHT22;9750;48.730;10.294;2024-02-14T09:26:35;8.00;99.90
19232;DHT22;9750;48.730;10.294;2024-02-14T09:29:04;8.10;99.90
19232;DHT22;9750;48.730;10.294;2024-02-14T09:31:33;8.10;99.90
19232;DHT22;9750;48.730;10.294;2024-02-14T09:34:02;8.20;99.90
19232;DHT22;9750;48.730;10.294;2024-02-14T09:36:29;8.20;99.90
19232;DHT22;9750;48.730;10.294;2024-02-14T09:38:56;8.20;99.90
19232;DHT22;9750;48.730;10.294;2024-02-14T09:41:29;8.30;99.90
19232;DHT22;9750;48.730;10.294;2024-02-14T09:43:59;8.30;99.90
19232;DHT22;9750;48.730;10.294;2024-02-14T09:46:26;8.40;99.90
19232;DHT22;9750;48.730;10.294;2024-02-14T09:48:56;8.50;99.90
19232;DHT22;9750;48.730;10.294;2024-02-14T09:51:30;8.60;99.90
19232;DHT22;9750;48.730;10.294;2024-02-14T09:54:00;8.60;99.90
19232;DHT22;9750;48.730;10.294;2024-02-14T09:56:28;8.70;99.90
19232;DHT22;9750;48.730;10.294;2024-02-14T09:58:57;8.70;99.90
19232;DHT22;9750;48.730;10.294;2024-02-14T10:01:26;8.70;99.90
19232;DHT22;9750;48.730;10.294;2024-02-14T10:03:54;8.80;99.90
19232;DHT22;9750;48.730;10.294;2024-02-14T10:06:22;8.80;99.90
19232;DHT22;9750;48.730;10.294;2024-02-14T10:08:50;8.90;99.90
19232;DHT22;9750;48.730;10.294;2024-02-14T10:11:18;9.00;99.90
19232;DHT22;9750;48.730;10.294;2024-02-14T10:13:47;9.10;99.90
19232;DHT22;9750;48.730;10.294;2024-02-14T10:16:16;9.20;99.90
19232;DHT22;9750;48.730;10.294;2024-02-14T10:18:44;9.30;99.90
19232;DHT22;9750;48.730;10.294;2024-02-14T10:21:15;9.40;99.90
19232;DHT22;9750;48.730;10.294;2024-02-14T10:23:45;9.50;99.90
19232;DHT22;9750;48.730;10.294;2024-02-14T10:26:14;9.60;99.90
19232;DHT22;9750;48.730;10.294;2024-02-14T10:28:41;9.70;99.90
19232;DHT22;9750;48.730;10.294;2024-02-14T10:31:10;9.80;99.90
19232;DHT22;9750;48.730;10.294;2024-02-14T10:33:39;9.90;99.90
19232;DHT22;9750;48.730;10.294;2024-02-14T10:36:07;9.90;99.90
19232;DHT22;9750;48.730;10.294;2024-02-14T10:38:35;9.90;99.90
19232;DHT22;9750;48.730;10.294;2024-02-14T10:41:03;10.00;99.90
19232;DHT22;9750;48.730;10.294;2024-02-14T10:43:32;10.00;99.90
19232;DHT22;9750;48.730;10.294;2024-02-14T10:46:05;10.00;99.90
19232;DHT22;9750;48.730;10.294;2024-02-14T10:48:35;10.10;99.90
19232;DHT22;9750;48.730;10.294;2024-02-14T10:51:06;10.10;99.90
19232;DHT22;9750;48.730;10.294;2024-02-14T10:53:38;10.10;99.90
19232;DHT22;9750;48.730;10.294;2024-02-14T10:56:08;10.10;99.90
19232;DHT22;9750;48.730;10.294;2024-02-14T10:58:38;10.10;99.90
19232;DHT22;9750;48.730;10.294;2024-02-14T11:01:06;10.10;99.90
19232;DHT22;9750;48.730;10.294;2024-02-14T11:03:35;10.10;99.90
19232;DHT22;9750;48.730;10.294;2024-02-14T11:06:03;10.10;99.90
19232;DHT22;9750;48.730;10.294;2024-02-14T11:08:30;10.20;99.90
19232;DHT22;9750;48.730;10.294;2024-02-14T11:10:59;10.30;99.90
19232;DHT22;9750;48.730;10.294;2024-02-14T11:13:27;10.20;99.90
19232;DHT22;9750;48.730;10.294;2024-02-14T11:16:00;10.20;99.90
19232;DHT22;9750;48.730;10.294;2024-02-14T11:18:28;10.20;99.90
19232;DHT22;9750;48.730;10.294;2024-02-14T11:20:56;10.20;99.90
19232;DHT22;9750;48.730;10.294;2024-02-14T11:23:24;10.20;99.90
19232;DHT22;9750;48.730;10.294;2024-02-14T11:25:59;10.30;99.90
19232;DHT22;9750;48.730;10.294;2024-02-14T11:28:28;10.40;99.90
19232;DHT22;9750;48.730;10.294;2024-02-14T11:31:01;10.50;99.90
19232;DHT22;9750;48.730;10.294;2024-02-14T11:33:29;10.60;99.90
19232;DHT22;9750;48.730;10.294;2024-02-14T11:38:53;10.70;99.90
19232;DHT22;9750;48.730;10.294;2024-02-14T11:41:20;10.80;99.90
19232;DHT22;9750;48.730;10.294;2024-02-14T11:43:51;10.80;99.90
19232;DHT22;9750;48.730;10.294;2024-02-14T11:46:42;10.90;99.90
19232;DHT22;9750;48.730;10.294;2024-02-14T11:49:09;11.00;99.90
19232;DHT22;9750;48.730;10.294;2024-02-14T11:51:37;11.10;99.90
19232;DHT22;9750;48.730;10.294;2024-02-14T11:54:05;11.20;99.90
19232;DHT22;9750;48.730;10.294;2024-02-14T11:56:33;11.40;99.90
19232;DHT22;9750;48.730;10.294;2024-02-14T11:59:00;11.50;99.90
19232;DHT22;9750;48.730;10.294;2024-02-14T12:01:30;11.60;99.90
19232;DHT22;9750;48.730;10.294;2024-02-14T12:04:00;11.60;99.90
19232;DHT22;9750;48.730;10.294;2024-02-14T12:06:27;11.70;99.90
19232;DHT22;9750;48.730;10.294;2024-02-14T12:08:57;11.70;99.90
19232;DHT22;9750;48.730;10.294;2024-02-14T12:11:27;11.70;99.90
19232;DHT22;9750;48.730;10.294;2024-02-14T12:13:54;11.80;99.90
19232;DHT22;9750;48.730;10.294;2024-02-14T12:16:22;11.80;99.90
19232;DHT22;9750;48.730;10.294;2024-02-14T12:18:50;11.80;99.90
19232;DHT22;9750;48.730;10.294;2024-02-14T12:21:34;11.80;99.90
19232;DHT22;9750;48.730;10.294;2024-02-14T12:24:03;11.70;99.90
19232;DHT22;9750;48.730;10.294;2024-02-14T12:26:30;11.80;99.90
19232;DHT22;9750;48.730;10.294;2024-02-14T12:29:00;11.70;99.90
19232;DHT22;9750;48.730;10.294;2024-02-14T12:31:28;11.70;99.90
19232;DHT22;9750;48.730;10.294;2024-02-14T12:33:56;11.80;99.90
19232;DHT22;9750;48.730;10.294;2024-02-14T12:36:26;11.80;99.90
19232;DHT22;9750;48.730;10.294;2024-02-14T12:38:55;11.80;99.90
19232;DHT22;9750;48.730;10.294;2024-02-14T12:41:23;11.80;99.90
19232;DHT22;9750;48.730;10.294;2024-02-14T12:43:52;11.80;99.90
19232;DHT22;9750;48.730;10.294;2024-02-14T12:46:19;11.80;99.90
19232;DHT22;9750;48.730;10.294;2024-02-14T12:48:46;11.80;99.90
19232;DHT22;9750;48.730;10.294;2024-02-14T12:51:14;11.80;99.90
19232;DHT22;9750;48.730;10.294;2024-02-14T12:53:41;11.70;99.90
19232;DHT22;9750;48.730;10.294;2024-02-14T12:59:32;11.70;99.90
19232;DHT22;9750;48.730;10.294;2024-02-14T13:01:59;11.60;99.90
19232;DHT22;9750;48.730;10.294;2024-02-14T13:04:26;11.60;99.90
19232;DHT22;9750;48.730;10.294;2024-02-14T13:06:54;11.70;99.90
19232;DHT22;9750;48.730;10.294;2024-02-14T13:09:21;11.60;99.90
19232;DHT22;9750;48.730;10.294;2024-02-14T13:11:48;11.60;99.90
19232;DHT22;9750;48.730;10.294;2024-02-14T13:14:15;11.60;99.90
19232;DHT22;9750;48.730;10.294;2024-02-14T13:16:44;11.70;99.90
19232;DHT22;9750;48.730;10.294;2024-02-14T13:19:11;11.70;99.90
19232;DHT22;9750;48.730;10.294;2024-02-14T13:21:39;11.70;99.90
19232;DHT22;9750;48.730;10.294;2024-02-14T13:24:11;11.60;99.90
19232;DHT22;9750;48.730;10.294;2024-02-14T13:26:39;11.60;99.90
19232;DHT22;9750;48.730;10.294;2024-02-14T13:29:07;11.60;99.90
19232;DHT22;9750;48.730;10.294;2024-02-14T13:31:34;11.60;99.90
19232;DHT22;9750;48.730;10.294;2024-02-14T13:34:03;11.70;99.90
19232;DHT22;9750;48.730;10.294;2024-02-14T13:36:30;11.80;99.90
19232;DHT22;9750;48.730;10.294;2024-02-14T13:38:58;11.90;99.90
19232;DHT22;9750;48.730;10.294;2024-02-14T13:41:26;12.00;99.90
19232;DHT22;9750;48.730;10.294;2024-02-14T13:43:53;12.00;99.90
19232;DHT22;9750;48.730;10.294;2024-02-14T13:46:20;12.10;99.90
19232;DHT22;9750;48.730;10.294;2024-02-14T13:48:48;12.10;99.90
19232;DHT22;9750;48.730;10.294;2024-02-14T13:51:17;12.10;99.90
19232;DHT22;9750;48.730;10.294;2024-02-14T13:53:45;12.10;99.90
19232;DHT22;9750;48.730;10.294;2024-02-14T13:56:13;12.00;99.90
19232;DHT22;9750;48.730;10.294;2024-02-14T13:58:41;12.00;99.90
19232;DHT22;9750;48.730;10.294;2024-02-14T14:01:10;12.00;99.90
19232;DHT22;9750;48.730;10.294;2024-02-14T14:03:37;11.90;99.90
19232;DHT22;9750;48.730;10.294;2024-02-14T14:06:07;11.90;99.90
19232;DHT22;9750;48.730;10.294;2024-02-14T14:08:36;11.90;99.90
19232;DHT22;9750;48.730;10.294;2024-02-14T14:11:04;11.90;99.90
19232;DHT22;9750;48.730;10.294;2024-02-14T14:13:31;12.00;99.90
19232;DHT22;9750;48.730;10.294;2024-02-14T14:19:10;12.20;99.90
19232;DHT22;9750;48.730;10.294;2024-02-14T14:21:38;12.20;99.90
19232;DHT22;9750;48.730;10.294;2024-02-14T14:24:06;12.20;99.90
19232;DHT22;9750;48.730;10.294;2024-02-14T14:26:34;12.20;99.90
19232;DHT22;9750;48.730;10.294;2024-02-14T14:29:01;12.10;99.90
19232;DHT22;9750;48.730;10.294;2024-02-14T14:31:29;12.10;99.90
19232;DHT22;9750;48.730;10.294;2024-02-14T14:33:56;12.10;99.90
19232;DHT22;9750;48.730;10.294;2024-02-14T14:36:24;12.10;99.90
19232;DHT22;9750;48.730;10.294;2024-02-14T14:38:51;12.10;99.90
19232;DHT22;9750;48.730;10.294;2024-02-14T14:41:21;12.10;99.90
19232;DHT22;9750;48.730;10.294;2024-02-14T14:43:48;12.10;99.90
19232;DHT22;9750;48.730;10.294;2024-02-14T14:46:16;12.10;99.90
19232;DHT22;9750;48.730;10.294;2024-02-14T14:48:43;12.10;99.90
19232;DHT22;9750;48.730;10.294;2024-02-14T14:51:10;12.10;99.90
19232;DHT22;9750;48.730;10.294;2024-02-14T14:53:37;12.10;99.90
19232;DHT22;9750;48.730;10.294;2024-02-14T14:56:05;12.00;99.90
19232;DHT22;9750;48.730;10.294;2024-02-14T14:58:34;12.00;99.90
19232;DHT22;9750;48.730;10.294;2024-02-14T15:01:02;12.00;99.90
19232;DHT22;9750;48.730;10.294;2024-02-14T15:03:30;12.00;99.90
19232;DHT22;9750;48.730;10.294;2024-02-14T15:05:58;12.00;99.90
19232;DHT22;9750;48.730;10.294;2024-02-14T15:08:25;12.00;99.90
19232;DHT22;9750;48.730;10.294;2024-02-14T15:10:53;12.00;99.90
19232;DHT22;9750;48.730;10.294;2024-02-14T15:13:21;12.00;99.90
19232;DHT22;9750;48.730;10.294;2024-02-14T15:16:09;12.00;99.90
19232;DHT22;9750;48.730;10.294;2024-02-14T15:18:36;12.00;99.90
19232;DHT22;9750;48.730;10.294;2024-02-14T15:21:04;12.10;99.90
19232;DHT22;9750;48.730;10.294;2024-02-14T15:23:32;12.10;99.90
19232;DHT22;9750;48.730;10.294;2024-02-14T15:26:00;12.10;99.90
19232;DHT22;9750;48.730;10.294;2024-02-14T15:28:30;12.10;99.90
19232;DHT22;9750;48.730;10.294;2024-02-14T15:30:57;12.10;99.90
19232;DHT22;9750;48.730;10.294;2024-02-14T15:33:43;12.10;99.90
19232;DHT22;9750;48.730;10.294;2024-02-14T15:36:11;12.10;99.90
19232;DHT22;9750;48.730;10.294;2024-02-14T15:38:41;12.20;99.90
19232;DHT22;9750;48.730;10.294;2024-02-14T15:41:08;12.10;99.90
19232;DHT22;9750;48.730;10.294;2024-02-14T15:43:35;12.10;99.90
19232;DHT22;9750;48.730;10.294;2024-02-14T15:46:03;12.10;99.90
19232;DHT22;9750;48.730;10.294;2024-02-14T15:48:30;12.10;99.90
19232;DHT22;9750;48.730;10.294;2024-02-14T15:51:00;12.10;99.90
19232;DHT22;9750;48.730;10.294;2024-02-14T15:53:27;12.00;99.90
19232;DHT22;9750;48.730;10.294;2024-02-14T15:55:56;12.00;99.90
19232;DHT22;9750;48.730;10.294;2024-02-14T15:58:23;12.00;99.90
19232;DHT22;9750;48.730;10.294;2024-02-14T16:00:51;12.00;99.90
19232;DHT22;9750;48.730;10.294;2024-02-14T16:03:21;12.00;99.90
19232;DHT22;9750;48.730;10.294;2024-02-14T16:05:48;12.00;99.90